createdAt,value
2019-04-26T00:00:51.068Z,35.13
2019-04-26T00:03:27.047Z,27.60
2019-04-26T00:05:57.646Z,28.32
2019-04-26T00:08:26.627Z,27.15
2019-04-26T00:11:05.029Z,34.95
2019-04-26T00:13:32.689Z,33.25
2019-04-26T00:18:44.707Z,32.10
2019-04-26T00:21:26.887Z,37.60
2019-04-26T00:23:57.538Z,27.87
2019-04-26T00:26:28.076Z,31.62
2019-04-26T00:28:58.247Z,32.90
2019-04-26T00:31:28.422Z,35.52
2019-04-26T00:33:58.476Z,33.18
2019-04-26T00:36:28.755Z,29.23
2019-04-26T00:38:59.014Z,34.10
2019-04-26T00:41:29.484Z,29.92
2019-04-26T00:43:59.765Z,29.90
2019-04-26T00:46:31.255Z,28.50
2019-04-26T00:49:04.084Z,37.30
2019-04-26T00:51:35.723Z,31.37
2019-04-26T00:54:06.131Z,29.07
2019-04-26T00:56:37.217Z,29.05
2019-04-26T00:59:09.418Z,31.10
2019-04-26T01:01:42.397Z,28.02
2019-04-26T01:04:12.728Z,33.18
2019-04-26T01:06:46.083Z,36.15
2019-04-26T01:09:17.375Z,33.18
2019-04-26T01:11:47.700Z,38.35
2019-04-26T01:14:17.916Z,32.75
2019-04-26T01:16:48.093Z,36.23
2019-04-26T01:19:18.665Z,27.65
2019-04-26T01:21:52.704Z,32.20
2019-04-26T01:24:27.274Z,37.67
2019-04-26T01:27:01.356Z,32.90
2019-04-26T01:29:32.237Z,31.48
2019-04-26T01:32:10.418Z,36.23
2019-04-26T01:34:44.275Z,36.60
2019-04-26T01:37:15.395Z,34.55
2019-04-26T01:39:50.947Z,32.67
2019-04-26T01:42:40.637Z,29.60
2019-04-26T01:45:26.215Z,50.28
2019-04-26T01:47:59.531Z,42.73
2019-04-26T01:50:32.202Z,31.75
2019-04-26T01:53:03.311Z,30.08
2019-04-26T01:55:35.142Z,29.77
2019-04-26T02:03:17.102Z,34.08
2019-04-26T02:05:46.887Z,41.10
2019-04-26T02:08:19.168Z,31.25
2019-04-26T02:10:49.450Z,31.60
2019-04-26T02:13:17.093Z,31.60
2019-04-26T02:15:47.137Z,34.55
2019-04-26T02:21:00.965Z,42.03
2019-04-26T02:23:28.637Z,39.65
2019-04-26T02:28:48.151Z,34.43
2019-04-26T02:31:19.562Z,32.48
2019-04-26T02:33:50.092Z,28.70
2019-04-26T02:36:22.029Z,34.45
2019-04-26T02:39:09.719Z,29.65
2019-04-26T02:41:39.858Z,28.40
2019-04-26T02:44:12.853Z,32.23
2019-04-26T02:46:50.539Z,30.35
2019-04-26T02:49:38.426Z,31.57
2019-04-26T02:52:06.316Z,33.63
2019-04-26T02:54:47.942Z,26.52
2019-04-26T02:57:15.678Z,31.87
2019-04-26T02:59:48.721Z,30.68
2019-04-26T03:05:01.396Z,27.55
2019-04-26T03:07:32.151Z,36.65
2019-04-26T03:10:02.810Z,31.33
2019-04-26T03:15:21.251Z,37.25
2019-04-26T03:17:49.022Z,42.00
2019-04-26T03:20:23.571Z,27.35
2019-04-26T03:25:34.728Z,32.60
2019-04-26T03:33:54.521Z,30.80
2019-04-26T03:36:51.473Z,38.80
2019-04-26T03:39:19.124Z,34.65
2019-04-26T03:44:42.264Z,33.42
2019-04-26T03:50:13.863Z,28.60
2019-04-26T03:53:15.280Z,26.75
2019-04-26T04:01:53.816Z,32.50
2019-04-26T04:07:03.659Z,34.03
2019-04-26T04:12:11.000Z,34.98
2019-04-26T04:14:31.220Z,39.33
2019-04-26T04:20:31.472Z,34.78
2019-04-26T04:22:59.215Z,34.27
2019-04-26T04:25:35.178Z,37.58
2019-04-26T04:28:33.861Z,27.93
2019-04-26T04:31:01.620Z,31.33
2019-04-26T04:33:56.226Z,47.78
2019-04-26T04:39:12.973Z,31.75
2019-04-26T04:42:12.667Z,40.23
2019-04-26T04:44:42.381Z,34.80
2019-04-26T04:50:32.164Z,31.30
2019-04-26T04:53:25.641Z,30.02
2019-04-26T04:56:14.495Z,41.85
2019-04-26T05:02:05.736Z,49.80
2019-04-26T05:04:33.496Z,47.17
2019-04-26T05:07:28.255Z,41.68
2019-04-26T05:10:17.295Z,35.85
2019-04-26T05:16:10.743Z,40.70
2019-04-26T05:21:20.214Z,39.03
2019-04-26T05:24:17.598Z,41.13
2019-04-26T05:27:40.664Z,38.53
2019-04-26T05:30:59.921Z,41.77
2019-04-26T05:34:08.534Z,36.73
2019-04-26T05:37:11.932Z,44.95
2019-04-26T05:40:04.542Z,51.48
2019-04-26T05:43:19.703Z,46.00
2019-04-26T05:46:22.823Z,40.12
2019-04-26T05:49:13.931Z,39.53
2019-04-26T05:52:13.639Z,41.50
2019-04-26T05:55:09.188Z,46.58
2019-04-26T05:57:58.499Z,44.13
2019-04-26T06:00:55.693Z,52.00
2019-04-26T06:04:07.145Z,42.43
2019-04-26T06:07:02.933Z,35.52
2019-04-26T06:10:04.734Z,39.10
2019-04-26T06:13:01.450Z,47.67
2019-04-26T06:15:48.028Z,33.45
2019-04-26T06:18:51.799Z,45.12
2019-04-26T06:21:35.898Z,32.30
2019-04-26T06:24:20.237Z,43.28
2019-04-26T06:27:13.610Z,32.58
2019-04-26T06:29:53.547Z,37.30
2019-04-26T06:32:38.289Z,35.43
2019-04-26T06:35:15.854Z,39.38
2019-04-26T06:38:12.499Z,30.23
2019-04-26T06:40:55.916Z,42.20
2019-04-26T06:43:37.583Z,26.05
2019-04-26T06:46:40.386Z,33.48
2019-04-26T06:49:32.098Z,26.15
2019-04-26T08:09:59.541Z,43.90
2019-04-26T08:12:23.939Z,37.40
2019-04-26T08:15:29.889Z,35.48
2019-04-26T08:18:15.231Z,30.08
2019-04-26T08:20:54.358Z,38.40
2019-04-26T08:23:39.619Z,31.68
2019-04-26T08:26:09.147Z,31.60
2019-04-26T08:31:23.200Z,30.97
2019-04-26T08:33:59.987Z,27.30
2019-04-26T08:36:36.796Z,28.32
2019-04-26T08:39:18.368Z,21.50
2019-04-26T08:41:51.432Z,27.58
2019-04-26T08:44:44.413Z,26.23
2019-04-26T08:47:29.367Z,33.85
2019-04-26T08:50:09.746Z,32.28
2019-04-26T08:52:40.477Z,25.10
2019-04-26T08:55:12.731Z,30.43
2019-04-26T08:57:45.747Z,25.62
2019-04-26T09:00:28.169Z,30.68
2019-04-26T09:03:12.970Z,33.78
2019-04-26T09:06:04.707Z,21.82
2019-04-26T09:08:43.618Z,27.98
2019-04-26T09:11:25.395Z,24.75
2019-04-26T09:13:51.898Z,24.07
2019-04-26T09:16:23.105Z,21.68
2019-04-26T09:18:59.386Z,24.70
2019-04-26T09:21:43.677Z,22.10
2019-04-26T09:24:35.132Z,28.65
2019-04-26T09:27:20.920Z,24.57
2019-04-26T09:30:00.599Z,23.65
2019-04-26T09:32:37.951Z,23.95
2019-04-26T09:35:11.314Z,20.50
2019-04-26T09:37:40.146Z,24.32
2019-04-26T09:40:25.647Z,19.77
2019-04-26T09:43:06.359Z,22.15
2019-04-26T09:45:55.597Z,26.37
2019-04-26T09:48:31.855Z,19.75
2019-04-26T09:51:02.431Z,20.75
2019-04-26T09:53:32.892Z,22.02
2019-04-26T09:56:03.154Z,25.85
2019-04-26T09:58:33.128Z,23.90
2019-04-26T10:01:06.074Z,19.27
2019-04-26T10:03:35.185Z,17.02
2019-04-26T10:06:08.058Z,17.60
2019-04-26T10:08:37.505Z,21.23
2019-04-26T10:11:10.843Z,16.15
2019-04-26T10:13:56.544Z,18.95
2019-04-26T10:16:42.216Z,18.80
2019-04-26T10:19:16.733Z,26.05
2019-04-26T10:21:46.900Z,21.25
2019-04-26T10:24:17.105Z,12.50
2019-04-26T10:26:47.263Z,18.95
2019-04-26T10:29:17.456Z,22.15
2019-04-26T10:31:47.550Z,22.55
2019-04-26T10:34:21.295Z,19.40
2019-04-26T10:36:51.235Z,13.32
2019-04-26T10:39:22.327Z,13.28
2019-04-26T10:41:52.564Z,17.70
2019-04-26T10:44:23.067Z,16.20
2019-04-26T10:46:55.709Z,9.63
2019-04-26T10:49:45.422Z,6.62
2019-04-26T10:52:31.147Z,12.37
2019-04-26T10:55:16.025Z,14.73
2019-04-26T10:57:46.651Z,16.93
2019-04-26T11:00:24.988Z,19.40
2019-04-26T11:02:55.164Z,18.55
2019-04-26T11:05:36.856Z,15.85
2019-04-26T11:08:07.003Z,25.08
2019-04-26T11:10:47.918Z,14.60
2019-04-26T11:13:09.665Z,16.77
2019-04-26T11:15:41.933Z,18.92
2019-04-26T11:18:12.332Z,17.85
2019-04-26T11:20:45.698Z,12.03
2019-04-26T11:23:15.666Z,13.22
2019-04-26T11:25:45.949Z,14.20
2019-04-26T11:28:17.240Z,17.07
2019-04-26T11:30:48.082Z,18.82
2019-04-26T11:33:19.677Z,12.00
2019-04-26T11:35:51.010Z,13.35
2019-04-26T11:38:21.823Z,15.50
2019-04-26T11:41:05.742Z,15.58
2019-04-26T11:43:25.846Z,13.65
2019-04-26T11:46:04.306Z,14.40
2019-04-26T11:48:29.209Z,14.55
2019-04-26T11:50:59.708Z,18.02
2019-04-26T11:53:30.014Z,14.33
2019-04-26T11:56:04.162Z,17.00
2019-04-26T11:58:32.030Z,10.85
2019-04-26T12:01:03.956Z,14.28
2019-04-26T12:06:14.253Z,10.70
2019-04-26T12:11:18.255Z,13.88
2019-04-26T12:16:14.705Z,20.40
2019-04-26T12:18:45.707Z,15.18
2019-04-26T12:21:14.578Z,14.83
2019-04-26T12:23:44.791Z,14.78
2019-04-26T12:28:43.819Z,14.85
2019-04-26T12:31:15.176Z,14.83
2019-04-26T12:33:45.206Z,17.05
2019-04-26T12:36:15.704Z,13.88
2019-04-26T12:38:43.475Z,16.05
2019-04-26T12:41:17.227Z,18.05
2019-04-26T12:43:45.796Z,10.15
2019-04-26T12:46:14.310Z,10.53
2019-04-26T12:48:46.059Z,22.05
2019-04-26T12:51:14.695Z,19.10
2019-04-26T12:53:44.970Z,13.78
2019-04-26T12:56:15.281Z,19.35
2019-04-26T12:58:45.589Z,15.40
2019-04-26T13:01:16.020Z,7.87
2019-04-26T13:06:14.918Z,9.25
2019-04-26T13:08:47.242Z,12.55
2019-04-26T13:11:15.448Z,7.97
2019-04-26T13:13:52.259Z,13.98
2019-04-26T13:16:21.829Z,19.10
2019-04-26T13:18:51.912Z,16.02
2019-04-26T13:21:22.014Z,16.65
2019-04-26T13:23:51.396Z,14.60
2019-04-26T13:26:22.844Z,8.40
2019-04-26T13:31:20.040Z,11.45
2019-04-26T13:33:50.164Z,11.90
2019-04-26T13:36:17.845Z,7.83
2019-04-26T13:38:48.156Z,11.93
2019-04-26T13:43:46.804Z,9.73
2019-04-26T13:46:34.065Z,16.12
2019-04-26T13:49:14.276Z,12.15
2019-04-26T13:51:43.069Z,17.32
2019-04-26T13:54:16.521Z,16.55
2019-04-26T13:59:13.247Z,22.07
2019-04-26T14:01:46.614Z,17.32
2019-04-26T14:04:16.345Z,25.40
2019-04-26T14:06:47.038Z,16.42
2019-04-26T14:09:15.862Z,14.83
2019-04-26T14:11:46.756Z,17.05
2019-04-26T14:16:47.554Z,18.77
2019-04-26T14:19:18.935Z,14.60
2019-04-26T14:21:46.936Z,12.70
2019-04-26T14:27:06.190Z,19.67
2019-04-26T14:32:07.088Z,19.10
2019-04-26T14:34:40.347Z,12.23
2019-04-26T14:37:11.177Z,10.43
2019-04-26T14:39:50.341Z,15.75
2019-04-26T14:42:09.706Z,17.42
2019-04-26T14:44:49.310Z,24.40
2019-04-26T14:49:43.196Z,17.75
2019-04-26T14:52:14.689Z,15.93
2019-04-26T14:54:46.161Z,17.90
2019-04-26T14:57:24.482Z,18.90
2019-04-26T15:07:58.260Z,10.13
2019-04-26T15:13:14.222Z,17.40
2019-04-26T15:18:02.949Z,17.62
2019-04-26T15:20:39.112Z,14.33
2019-04-26T15:23:09.228Z,22.20
2019-04-26T15:25:41.434Z,13.48
2019-04-26T15:28:11.964Z,12.18
2019-04-26T15:30:46.739Z,14.35
2019-04-26T15:33:14.014Z,17.42
2019-04-26T15:35:49.439Z,25.85
2019-04-26T15:43:53.967Z,20.15
2019-04-26T15:46:48.291Z,23.27
2019-04-26T15:49:29.439Z,22.37
2019-04-26T15:54:25.768Z,24.18
2019-04-26T15:56:56.195Z,26.00
2019-04-26T15:59:25.533Z,16.67
2019-04-26T16:01:56.773Z,17.98
2019-04-26T16:04:24.770Z,16.35
2019-04-26T16:06:55.408Z,20.35
2019-04-26T16:09:26.167Z,24.47
2019-04-26T16:14:26.437Z,19.70
2019-04-26T16:16:52.992Z,33.85
2019-04-26T16:19:26.680Z,25.05
2019-04-26T16:21:56.345Z,16.95
2019-04-26T16:24:27.802Z,13.83
2019-04-26T16:26:58.742Z,29.02
2019-04-26T16:29:26.421Z,19.10
2019-04-26T16:34:47.636Z,19.85
2019-04-26T16:37:21.682Z,23.87
2019-04-26T16:39:48.813Z,14.98
2019-04-26T16:42:19.623Z,20.10
2019-04-26T16:44:48.259Z,16.27
2019-04-26T16:47:17.830Z,17.82
2019-04-26T16:49:48.107Z,23.75
2019-04-26T16:52:17.637Z,28.40
2019-04-26T16:54:48.167Z,23.38
2019-04-26T16:59:49.167Z,17.00
2019-04-26T17:02:25.522Z,26.20
2019-04-26T17:04:53.255Z,25.10
2019-04-26T17:07:27.301Z,21.93
2019-04-26T17:09:58.888Z,20.30
2019-04-26T17:12:26.241Z,22.77
2019-04-26T17:15:17.474Z,18.42
2019-04-26T17:17:50.418Z,31.85
2019-04-26T17:20:20.087Z,24.23
2019-04-26T17:23:08.604Z,34.78
2019-04-26T17:26:02.095Z,43.90
2019-04-26T17:28:33.661Z,42.60
2019-04-26T17:31:05.616Z,53.78
2019-04-26T17:33:36.245Z,36.75
2019-04-26T17:36:11.483Z,45.55
2019-04-26T17:38:42.000Z,54.03
2019-04-26T17:41:13.814Z,34.00
2019-04-26T17:43:47.553Z,40.80
2019-04-26T17:46:18.277Z,34.73
2019-04-26T17:48:50.754Z,30.52
2019-04-26T17:51:23.301Z,43.35
2019-04-26T17:54:20.387Z,37.58
2019-04-26T17:58:54.580Z,25.02
2019-04-26T18:03:55.820Z,35.13
2019-04-26T18:06:29.857Z,28.87
2019-04-26T18:08:55.185Z,24.55
2019-04-26T18:11:26.126Z,35.65
2019-04-26T18:16:29.270Z,33.75
2019-04-26T18:19:15.703Z,32.53
2019-04-26T18:24:23.467Z,32.98
2019-04-26T18:26:59.021Z,39.20
2019-04-26T18:29:29.311Z,30.35
2019-04-26T18:32:03.609Z,29.45
2019-04-26T18:34:36.775Z,22.95
2019-04-26T18:37:07.411Z,28.07
2019-04-26T18:39:36.661Z,25.27
2019-04-26T18:42:09.381Z,30.90
2019-04-26T18:47:20.410Z,33.70
2019-04-26T18:49:46.038Z,30.25
2019-04-26T18:52:19.443Z,49.13
2019-04-26T18:57:17.238Z,55.17
2019-04-26T18:59:51.335Z,47.67
2019-04-26T19:02:18.747Z,50.60
2019-04-26T19:04:49.864Z,41.53
2019-04-26T19:07:17.620Z,33.85
2019-04-26T19:09:58.740Z,30.97
2019-04-26T19:12:23.374Z,29.12
2019-04-26T19:15:11.543Z,29.37
2019-04-26T19:17:39.391Z,43.58
2019-04-26T19:20:19.556Z,40.43
2019-04-26T19:23:00.993Z,31.50
2019-04-26T19:25:29.904Z,21.80
2019-04-26T19:28:04.475Z,26.87
2019-04-26T19:30:33.234Z,26.80
2019-04-26T19:33:02.053Z,50.48
2019-04-26T19:35:34.142Z,31.45
2019-04-26T19:38:03.247Z,25.62
2019-04-26T19:40:46.421Z,25.35
2019-04-26T19:43:12.625Z,25.48
2019-04-26T19:45:53.502Z,29.95
2019-04-26T19:48:22.965Z,26.62
2019-04-26T19:51:15.045Z,27.25
2019-04-26T19:56:31.517Z,22.90
2019-04-26T20:01:43.878Z,28.50
2019-04-26T20:04:14.369Z,42.60
2019-04-26T20:06:55.329Z,28.85
2019-04-26T20:09:26.684Z,36.30
2019-04-26T20:12:02.513Z,39.55
2019-04-26T20:14:50.376Z,39.25
2019-04-26T20:17:19.971Z,31.97
2019-04-26T20:19:56.908Z,31.00
2019-04-26T20:24:57.449Z,27.95
2019-04-26T20:29:58.914Z,46.85
2019-04-26T20:35:26.747Z,27.98
2019-04-26T20:37:56.332Z,29.80
2019-04-26T20:40:28.783Z,26.73
2019-04-26T20:43:05.705Z,29.35
2019-04-26T20:45:41.302Z,22.90
2019-04-26T20:48:06.610Z,44.25
2019-04-26T20:50:37.421Z,36.55
2019-04-26T20:53:07.129Z,32.78
2019-04-26T20:55:39.637Z,35.98
2019-04-26T21:00:37.816Z,33.63
2019-04-26T21:03:21.010Z,39.20
2019-04-26T21:05:46.083Z,32.93
2019-04-26T21:08:14.055Z,34.85
2019-04-26T21:13:32.485Z,31.00
2019-04-26T21:16:10.378Z,26.45
2019-04-26T21:18:40.053Z,25.82
2019-04-26T21:21:10.635Z,35.75
2019-04-26T21:23:40.129Z,21.35
2019-04-26T21:26:29.831Z,33.13
2019-04-26T21:29:21.774Z,36.48
2019-04-26T21:32:03.494Z,25.65
2019-04-26T21:34:35.663Z,33.73
2019-04-26T21:37:24.911Z,31.10
2019-04-26T21:40:16.893Z,28.55
2019-04-26T21:43:00.697Z,32.30
2019-04-26T21:45:31.060Z,32.40
2019-04-26T21:48:02.650Z,30.10
2019-04-26T21:50:38.641Z,34.27
2019-04-26T21:53:07.127Z,35.68
2019-04-26T21:55:38.770Z,29.12
2019-04-26T21:58:06.749Z,32.75
2019-04-26T22:00:55.963Z,32.50
2019-04-26T22:03:30.043Z,32.95
2019-04-26T22:05:57.716Z,26.65
2019-04-26T22:08:31.175Z,25.40
2019-04-26T22:10:58.894Z,40.23
2019-04-26T22:13:37.313Z,33.78
2019-04-26T22:16:07.765Z,32.10
2019-04-26T22:18:56.809Z,35.70
2019-04-26T22:21:30.163Z,29.75
2019-04-26T22:26:34.083Z,27.17
2019-04-26T22:29:08.065Z,21.42
2019-04-26T22:31:37.901Z,39.13
2019-04-26T22:34:08.886Z,26.48
2019-04-26T22:36:37.681Z,18.73
2019-04-26T22:39:14.256Z,23.65
2019-04-26T22:41:44.411Z,25.55
2019-04-26T22:49:45.567Z,28.85
2019-04-26T22:52:16.468Z,30.20
2019-04-26T22:57:16.181Z,27.95
2019-04-26T22:59:50.183Z,27.42
2019-04-26T23:02:18.469Z,22.02
2019-04-26T23:04:48.882Z,30.43
2019-04-26T23:07:18.430Z,26.52
2019-04-26T23:09:51.887Z,31.23
2019-04-26T23:12:24.961Z,20.30
2019-04-26T23:15:03.203Z,30.20
2019-04-26T23:17:34.802Z,32.15
2019-04-26T23:20:25.262Z,28.45
2019-04-26T23:23:00.465Z,35.35
2019-04-26T23:25:27.717Z,24.63
2019-04-26T23:27:58.370Z,21.50
2019-04-26T23:32:56.851Z,33.40
2019-04-26T23:35:26.965Z,33.42
2019-04-26T23:37:56.505Z,33.40
2019-04-26T23:40:29.011Z,29.40
2019-04-26T23:45:27.669Z,32.55
2019-04-26T23:47:57.841Z,25.45
2019-04-26T23:52:54.723Z,28.77
2019-04-26T23:55:24.804Z,24.63
2019-04-26T23:57:53.446Z,31.60
